Time;durP1;ratioP1;P1;durP2;ratioP2;P2;SDS_P1;SDS_P2;PMS_P1;PMS_P2;Temp;Humidity;BMP_temperature;BMP_pressure;BME280_temperature;BME280_humidity;BME280_pressure;Samples;Min_cycle;Max_cycle;Signal;HPM_P1;HPM_P2
2023/05/08 00:00:18;;;;;;;2.60;0.80;;;;;;;10.28;38.70;100004.00;79299;1300;3011618;-67
2023/05/08 00:02:46;;;;;;;3.10;0.80;;;;;;;10.34;38.71;100011.40;78035;1300;3028285;-65
2023/05/08 00:05:13;;;;;;;5.80;1.10;;;;;;;10.33;38.74;100006.53;79319;1298;3013405;-67
2023/05/08 00:07:40;;;;;;;3.50;1.10;;;;;;;10.37;38.60;100009.35;79550;1295;3013711;-66
2023/05/08 00:10:08;;;;;;;3.70;1.00;;;;;;;10.34;39.03;100011.23;78238;1299;3028536;-64
2023/05/08 00:12:35;;;;;;;0.90;0.70;;;;;;;10.28;39.30;100007.16;79247;1299;3011778;-68
2023/05/08 00:15:03;;;;;;;1.90;1.00;;;;;;;10.29;39.43;100011.50;79431;1300;3011619;-66
2023/05/08 00:17:32;;;;;;;1.70;1.00;;;;;;;10.25;39.49;100009.58;78076;1296;3068725;-65
2023/05/08 00:19:59;;;;;;;2.80;0.90;;;;;;;10.27;39.42;100008.25;79448;1298;3014969;-67
2023/05/08 00:22:26;;;;;;;1.30;1.00;;;;;;;10.28;39.35;100009.77;79530;1299;3012067;-70
2023/05/08 00:24:54;;;;;;;1.00;0.80;;;;;;;10.24;39.39;100015.23;78190;1296;3054669;-66
2023/05/08 00:27:20;;;;;;;3.50;0.90;;;;;;;10.21;39.40;100017.48;79272;1297;3018482;-68
2023/05/08 00:29:47;;;;;;;2.20;1.20;;;;;;;10.17;39.47;100018.19;79163;1301;3013047;-65
2023/05/08 00:32:16;;;;;;;3.20;0.80;;;;;;;10.07;39.76;100018.33;78200;1294;3028569;-67
2023/05/08 00:34:43;;;;;;;4.00;0.90;;;;;;;10.08;39.80;100019.17;79208;1297;3013302;-68
2023/05/08 00:37:09;;;;;;;1.10;0.70;;;;;;;10.13;39.59;100020.52;79456;1295;3011677;-65
2023/05/08 00:39:37;;;;;;;4.30;1.20;;;;;;;10.10;39.87;100023.11;78016;1298;3052993;-67
2023/05/08 00:42:04;;;;;;;1.90;1.00;;;;;;;10.08;39.91;100021.80;79589;1299;3013488;-65
2023/05/08 00:44:30;;;;;;;1.90;0.80;;;;;;;10.12;39.76;100020.02;79250;1301;3011859;-67
2023/05/08 00:46:58;;;;;;;2.70;1.10;;;;;;;10.15;39.82;100019.02;78042;1294;3026743;-67
2023/05/08 00:49:25;;;;;;;1.80;0.90;;;;;;;10.12;39.71;100016.52;79213;1295;3019202;-63
2023/05/08 00:51:53;;;;;;;0.90;0.80;;;;;;;10.11;39.80;100013.78;79122;1301;3011547;-65
2023/05/08 00:54:21;;;;;;;1.80;0.90;;;;;;;10.05;40.14;100016.19;78009;1298;3053325;-70
2023/05/08 00:56:49;;;;;;;1.80;0.90;;;;;;;10.05;39.91;100007.93;79394;1294;3018427;-65
2023/05/08 00:59:15;;;;;;;2.50;1.00;;;;;;;9.93;40.23;100009.60;79334;1301;3011879;-64
2023/05/08 01:01:43;;;;;;;2.10;0.90;;;;;;;9.91;40.19;100006.70;77968;1296;3069681;-66
2023/05/08 01:04:10;;;;;;;1.90;1.00;;;;;;;9.86;40.46;100006.75;79259;1299;3013596;-67
2023/05/08 01:06:37;;;;;;;0.90;0.70;;;;;;;9.87;40.37;100010.23;79213;1299;3011398;-68
2023/05/08 01:09:06;;;;;;;1.60;1.00;;;;;;;9.84;40.32;100001.10;78086;1301;3026004;-66
2023/05/08 01:11:38;;;;;;;1.50;1.00;;;;;;;9.86;40.22;99998.56;79397;1300;3015845;-66
2023/05/08 01:14:18;;;;;;;1.40;0.90;;;;;;;9.87;40.19;99995.70;78211;1299;3052564;-67
2023/05/08 01:17:04;;;;;;;1.40;1.00;;;;;;;9.78;40.28;99995.27;78138;1295;3068130;-67
2023/05/08 01:19:51;;;;;;;1.80;1.10;;;;;;;9.79;40.28;99993.28;78077;1299;3052378;-71
2023/05/08 01:22:31;;;;;;;1.30;1.00;;;;;;;9.75;40.61;99995.75;78173;1295;3056647;-66
2023/05/08 01:25:37;;;;;;;2.20;1.00;;;;;;;9.66;41.01;99998.98;78179;1299;3050102;-63
2023/05/08 01:28:08;;;;;;;4.60;0.80;;;;;;;9.68;40.78;99996.78;78298;1298;3055252;-62
2023/05/08 01:30:47;;;;;;;3.30;0.90;;;;;;;9.71;40.75;99993.52;79921;1300;3011678;-65
2023/05/08 01:33:29;;;;;;;2.10;1.10;;;;;;;9.71;40.70;99997.54;79034;1300;3052082;-65
2023/05/08 01:36:15;;;;;;;1.30;0.70;;;;;;;9.70;40.96;99998.48;78598;1298;3053273;-65
2023/05/08 01:39:03;;;;;;;1.00;0.80;;;;;;;9.74;40.90;99996.15;78168;1299;3069625;-67
2023/05/08 01:41:31;;;;;;;0.90;0.80;;;;;;;9.78;40.86;99996.86;78013;1299;3052081;-65
2023/05/08 01:44:18;;;;;;;2.80;1.10;;;;;;;9.75;40.91;99998.93;79059;1303;3013456;-62
2023/05/08 01:46:49;;;;;;;1.90;0.90;;;;;;;9.62;41.19;99995.52;77936;1300;3053791;-67
2023/05/08 01:49:28;;;;;;;1.70;1.00;;;;;;;9.66;40.90;100007.05;79213;1299;3011630;-68
2023/05/08 01:52:06;;;;;;;1.30;1.00;;;;;;;9.64;40.93;100012.55;78088;1300;3050799;-60
2023/05/08 01:54:40;;;;;;;7.30;0.90;;;;;;;9.60;41.30;100015.73;78027;1299;3052916;-67
2023/05/08 01:57:06;;;;;;;1.90;1.20;;;;;;;9.56;41.51;100017.64;79187;1295;3011761;-61
2023/05/08 01:59:34;;;;;;;1.60;0.90;;;;;;;9.61;40.99;100012.89;78016;1297;3051597;-68
2023/05/08 02:02:02;;;;;;;1.40;1.00;;;;;;;9.60;41.06;100016.23;79180;1296;3013934;-64
2023/05/08 02:04:29;;;;;;;2.30;0.90;;;;;;;9.57;40.80;100014.27;79238;1294;3011595;-65
2023/05/08 02:06:57;;;;;;;2.40;0.90;;;;;;;9.59;40.79;100020.16;78022;1301;3050481;-66
2023/05/08 02:09:25;;;;;;;2.90;1.10;;;;;;;9.47;41.19;100020.55;79408;1301;3015362;-66
2023/05/08 02:11:51;;;;;;;3.30;1.00;;;;;;;9.45;41.27;100018.70;79214;1298;3011491;-60
2023/05/08 02:14:19;;;;;;;2.20;0.90;;;;;;;9.51;41.01;100019.48;78073;1294;3051602;-64
2023/05/08 02:16:47;;;;;;;2.50;1.00;;;;;;;9.46;41.40;100017.30;79207;1294;3013236;-63
2023/05/08 02:19:14;;;;;;;3.50;1.00;;;;;;;9.43;41.35;100021.77;79244;1297;3011865;-61
2023/05/08 02:21:43;;;;;;;1.60;1.00;;;;;;;9.46;41.28;100026.20;77926;1301;3050004;-59
2023/05/08 02:24:09;;;;;;;2.20;1.00;;;;;;;9.43;41.59;100026.50;79278;1299;3012924;-58
2023/05/08 02:26:36;;;;;;;1.50;1.00;;;;;;;9.51;41.17;100023.48;79041;1294;3011399;-62
2023/05/08 02:29:04;;;;;;;1.80;0.90;;;;;;;9.48;41.21;100023.10;77930;1301;3051160;-61
2023/05/08 02:31:30;;;;;;;2.70;1.00;;;;;;;9.42;41.37;100020.95;79427;1296;3013357;-57
2023/05/08 02:33:57;;;;;;;2.60;0.90;;;;;;;9.51;41.27;100019.50;79223;1296;3011804;-62
2023/05/08 02:36:27;;;;;;;1.80;0.80;;;;;;;9.47;40.90;100016.52;77996;1301;3049715;-61
2023/05/08 02:38:57;;;;;;;2.50;1.00;;;;;;;9.36;41.30;100017.73;79442;1296;3011460;-62
2023/05/08 02:41:28;;;;;;;1.30;0.80;;;;;;;9.38;41.29;100012.55;78053;1300;3025934;-62
2023/05/08 02:43:54;;;;;;;4.10;0.90;;;;;;;9.41;41.14;100019.78;79264;1297;3011838;-62
2023/05/08 02:46:29;;;;;;;2.00;1.00;;;;;;;9.42;41.01;100020.78;79191;1295;3013636;-63
2023/05/08 02:49:03;;;;;;;1.90;0.80;;;;;;;9.38;41.26;100019.58;79306;1295;3011610;-65
2023/05/08 02:51:54;;;;;;;3.10;1.00;;;;;;;9.33;41.12;100019.24;78236;1301;3049364;-60
2023/05/08 02:54:59;;;;;;;1.20;0.80;;;;;;;9.36;41.08;100017.56;78079;1294;3053086;-63
2023/05/08 02:57:36;;;;;;;1.70;1.00;;;;;;;9.35;40.85;100012.89;77606;1306;3050249;-64
2023/05/08 03:00:17;;;;;;;2.70;0.70;;;;;;;9.36;40.94;100010.36;78213;1301;3053641;-63
2023/05/08 03:02:51;;;;;;;3.30;1.00;;;;;;;9.37;40.80;100010.35;78176;1300;3053310;-65
2023/05/08 03:05:21;;;;;;;1.30;0.90;;;;;;;9.33;41.05;100005.63;79286;1299;3013478;-60
2023/05/08 03:07:51;;;;;;;3.70;0.90;;;;;;;9.33;40.73;100016.10;78342;1295;3051923;-63
2023/05/08 03:10:18;;;;;;;4.90;1.00;;;;;;;9.42;40.67;100016.59;79280;1301;3011843;-61
2023/05/08 03:12:48;;;;;;;2.60;1.10;;;;;;;9.41;40.84;100013.67;78857;1298;3011610;-61
2023/05/08 03:15:22;;;;;;;2.40;0.90;;;;;;;9.38;40.88;100015.00;79453;1295;3012538;-62
2023/05/08 03:17:56;;;;;;;1.60;0.90;;;;;;;9.36;41.06;100016.13;78065;1301;3050390;-61
2023/05/08 03:20:23;;;;;;;1.80;1.00;;;;;;;9.38;41.08;100012.89;79326;1300;3011623;-63
2023/05/08 03:22:52;;;;;;;1.00;0.80;;;;;;;9.35;41.19;100013.91;78028;1297;3052201;-67
2023/05/08 03:25:19;;;;;;;3.60;1.40;;;;;;;9.37;41.04;100013.85;79137;1298;3013339;-63
2023/05/08 03:27:45;;;;;;;1.60;0.90;;;;;;;9.38;41.04;100012.20;79222;1295;3011500;-64
2023/05/08 03:30:13;;;;;;;1.90;0.90;;;;;;;9.36;41.10;100010.55;78106;1301;3048401;-62
2023/05/08 03:32:44;;;;;;;0.90;0.80;;;;;;;9.38;41.15;100012.39;79227;1297;3013583;-62
2023/05/08 03:35:13;;;;;;;1.20;0.80;;;;;;;9.44;40.68;100018.92;78301;1300;3026452;-66
2023/05/08 03:37:41;;;;;;;1.60;0.90;;;;;;;9.40;40.86;100012.83;79329;1300;3013157;-63
2023/05/08 03:40:09;;;;;;;4.90;1.20;;;;;;;9.43;40.80;100014.79;79272;1297;3011582;-64
2023/05/08 03:42:37;;;;;;;1.30;0.80;;;;;;;9.46;40.85;100020.94;78158;1301;3052143;-61
2023/05/08 03:45:04;;;;;;;2.60;0.70;;;;;;;9.45;40.91;100018.52;79212;1301;3018409;-60
2023/05/08 14:52:08;;;;;;;6.80;1.40;;;;;;;16.29;30.86;100021.15;79952;1301;3013300;-63
2023/05/08 14:54:34;;;;;;;2.50;1.20;;;;;;;16.22;30.97;100022.88;78879;1301;3020975;-61
2023/05/08 14:57:01;;;;;;;3.70;1.20;;;;;;;16.26;31.09;100020.85;79109;1302;3011965;-61
2023/05/08 14:59:29;;;;;;;3.20;1.00;;;;;;;16.14;31.03;100020.64;77944;1304;3026478;-63
2023/05/08 15:01:55;;;;;;;2.60;1.10;;;;;;;16.06;31.12;100013.65;79315;1301;3018614;-61
2023/05/08 15:04:22;;;;;;;2.40;1.10;;;;;;;16.10;31.40;100016.02;77327;1297;5615269;-61
2023/05/08 15:06:49;;;;;;;7.00;1.20;;;;;;;16.11;31.64;100016.44;78172;1301;3028333;-64
2023/05/08 15:09:16;;;;;;;2.80;1.20;;;;;;;16.17;31.23;100022.94;79257;1301;3013626;-61
2023/05/08 15:11:43;;;;;;;4.10;1.20;;;;;;;16.12;30.97;100024.85;79323;1301;3011731;-61
2023/05/08 15:14:11;;;;;;;1.50;1.10;;;;;;;16.05;31.01;100031.07;78150;1300;3026183;-65
2023/05/08 15:16:37;;;;;;;4.30;1.20;;;;;;;15.99;31.01;100030.98;79326;1301;3012957;-63
2023/05/08 15:19:04;;;;;;;4.20;1.10;;;;;;;15.98;30.96;100032.84;79244;1297;3011920;-64
2023/05/08 15:21:32;;;;;;;4.30;1.20;;;;;;;15.90;31.06;100026.81;78098;1301;3028115;-64
2023/05/08 15:23:58;;;;;;;0.90;0.80;;;;;;;15.95;30.87;100028.77;79282;1301;3012994;-66
2023/05/08 15:26:25;;;;;;;4.30;1.10;;;;;;;15.93;30.67;100029.95;79517;1300;3011474;-62
2023/05/08 15:28:53;;;;;;;2.30;0.80;;;;;;;16.00;30.51;100023.45;78220;1298;3028650;-64
2023/05/08 15:31:19;;;;;;;2.30;1.20;;;;;;;16.02;30.53;100027.39;79520;1298;3013423;-61
2023/05/08 15:33:47;;;;;;;1.20;0.90;;;;;;;16.00;30.49;100024.02;79320;1299;3011633;-62
2023/05/08 15:36:14;;;;;;;1.60;1.00;;;;;;;15.98;30.47;100032.80;78236;1298;3049589;-61
2023/05/08 15:38:42;;;;;;;3.10;1.10;;;;;;;15.87;30.77;100031.83;79477;1296;3021520;-62
2023/05/08 15:41:12;;;;;;;3.70;1.10;;;;;;;15.75;31.05;100031.45;79481;1296;3011993;-60
2023/05/08 15:43:40;;;;;;;1.20;0.70;;;;;;;15.71;30.90;100037.59;78234;1298;3053100;-62
2023/05/08 15:46:06;;;;;;;7.30;1.10;;;;;;;15.70;31.01;100040.82;79586;1298;3013497;-61
2023/05/08 15:48:33;;;;;;;4.40;0.90;;;;;;;15.54;31.08;100042.34;79571;1298;3012952;-62
2023/05/08 15:51:01;;;;;;;5.00;1.30;;;;;;;15.42;31.52;100046.38;78096;1299;3026484;-58
2023/05/08 15:53:27;;;;;;;2.60;0.90;;;;;;;15.38;31.51;100046.24;79630;1297;3013641;-61
2023/05/08 15:55:55;;;;;;;1.80;1.10;;;;;;;15.43;31.43;100049.63;79522;1298;3011826;-63
2023/05/08 15:58:23;;;;;;;1.80;1.00;;;;;;;15.39;31.26;100055.05;78358;1298;3052163;-64
2023/05/08 16:00:50;;;;;;;1.90;0.90;;;;;;;15.20;31.84;100053.73;79599;1298;3013371;-63
2023/05/08 16:03:16;;;;;;;2.90;0.90;;;;;;;15.21;31.69;100053.88;79558;1296;3013116;-62
2023/05/08 16:05:44;;;;;;;2.30;0.90;;;;;;;15.27;31.58;100058.72;78232;1298;3027985;-60
2023/05/08 16:08:12;;;;;;;2.50;0.60;;;;;;;15.20;31.65;100059.74;79766;1297;3012823;-61
2023/05/08 16:10:39;;;;;;;1.70;0.90;;;;;;;15.22;31.60;100063.67;79416;1300;3013661;-65
2023/05/08 16:13:07;;;;;;;9.20;1.10;;;;;;;15.21;31.64;100063.75;78040;1300;3051874;-64
2023/05/08 16:15:34;;;;;;;1.90;1.20;;;;;;;15.18;31.91;100065.73;79218;1300;3013155;-63
2023/05/08 16:18:01;;;;;;;7.50;1.00;;;;;;;15.12;31.97;100068.80;79413;1296;3011957;-62
2023/05/08 16:20:29;;;;;;;2.50;1.40;;;;;;;15.02;32.03;100073.70;78082;1300;3026423;-61
2023/05/08 16:22:56;;;;;;;3.20;1.10;;;;;;;14.96;32.12;100074.30;79465;1298;3014759;-62
2023/05/08 16:25:23;;;;;;;2.60;1.10;;;;;;;14.94;32.16;100075.98;79179;1298;3011793;-63
2023/05/08 16:27:51;;;;;;;4.00;1.30;;;;;;;14.92;32.09;100074.54;78020;1299;3052265;-64
2023/05/08 16:30:18;;;;;;;3.00;1.10;;;;;;;14.88;31.92;100074.80;79199;1300;3013745;-60
2023/05/08 16:32:44;;;;;;;3.30;1.20;;;;;;;14.83;31.66;100072.70;79264;1300;3011636;-60
2023/05/08 16:35:12;;;;;;;1.40;0.70;;;;;;;14.77;31.79;100075.08;77978;1299;3027963;-64
2023/05/08 16:37:39;;;;;;;2.20;0.80;;;;;;;14.68;31.48;100079.89;79305;1295;3012847;-66
2023/05/08 16:40:07;;;;;;;3.20;1.00;;;;;;;14.57;31.70;100079.36;79155;1299;3011537;-63
2023/05/08 16:42:35;;;;;;;1.70;1.10;;;;;;;14.54;31.63;100079.42;78178;1300;3052997;-61
2023/05/08 16:45:03;;;;;;;1.90;1.10;;;;;;;14.34;31.55;100080.19;79142;1296;3013320;-61
2023/05/08 16:47:33;;;;;;;2.90;1.00;;;;;;;14.25;31.63;100079.01;78794;1296;3011649;-65
2023/05/08 16:49:59;;;;;;;1.40;0.80;;;;;;;14.25;31.99;100083.57;79227;1300;3013733;-61
2023/05/08 16:52:26;;;;;;;5.10;1.30;;;;;;;14.20;31.88;100089.44;79223;1296;3013367;-62
2023/05/08 16:54:54;;;;;;;5.30;0.70;;;;;;;14.17;32.48;100091.88;78017;1300;3028711;-61
2023/05/08 16:57:20;;;;;;;1.40;1.00;;;;;;;14.06;32.50;100094.01;79515;1297;3020781;-63
2023/05/08 16:59:47;;;;;;;1.70;1.00;;;;;;;13.89;32.80;100097.19;79248;1299;3011507;-63
2023/05/08 17:02:17;;;;;;;2.10;1.00;;;;;;;13.88;32.69;100103.81;78078;1300;3028453;-62
2023/05/08 17:04:47;;;;;;;2.10;1.30;;;;;;;13.85;32.97;100106.45;79368;1298;3013210;-68
2023/05/08 17:07:15;;;;;;;1.90;0.90;;;;;;;13.83;32.87;100107.48;78229;1299;3049628;-62
2023/05/08 17:09:42;;;;;;;6.20;1.00;;;;;;;13.77;32.56;100115.22;79305;1294;3013001;-61
2023/05/08 17:12:09;;;;;;;2.30;1.30;;;;;;;13.62;33.30;100117.79;79516;1298;3011829;-64
2023/05/08 17:14:39;;;;;;;3.60;1.10;;;;;;;13.57;33.40;100124.42;78268;1297;3028538;-62
2023/05/08 17:17:05;;;;;;;4.80;1.30;;;;;;;13.48;33.54;100123.04;79366;1294;3013040;-61
2023/05/08 17:19:32;;;;;;;2.40;1.00;;;;;;;13.40;33.57;100122.67;79446;1296;3013654;-62
2023/05/08 17:22:00;;;;;;;8.30;1.30;;;;;;;13.39;33.70;100129.93;78152;1298;3049162;-62
2023/05/08 17:24:28;;;;;;;3.70;1.40;;;;;;;13.35;34.14;100136.33;79486;1298;3018947;-62
2023/05/08 17:26:55;;;;;;;4.40;1.20;;;;;;;13.27;34.51;100136.62;79315;1295;3011988;-62
2023/05/08 17:29:23;;;;;;;4.10;1.20;;;;;;;13.21;34.61;100138.91;78078;1299;3052871;-62
2023/05/08 17:31:49;;;;;;;3.40;1.20;;;;;;;13.19;34.75;100150.48;79496;1297;3018537;-63
2023/05/08 17:34:16;;;;;;;3.20;1.30;;;;;;;13.15;34.64;100147.58;79295;1297;3013450;-63
2023/05/08 17:36:43;;;;;;;2.40;1.30;;;;;;;13.08;34.72;100148.29;78185;1295;3025755;-60
2023/05/08 17:39:10;;;;;;;1.60;1.00;;;;;;;13.02;34.81;100150.77;79441;1296;3013693;-61
2023/05/08 17:41:37;;;;;;;3.60;1.30;;;;;;;12.98;34.86;100151.91;79379;1298;3013394;-63
2023/05/08 17:44:05;;;;;;;2.70;0.90;;;;;;;12.91;35.25;100156.33;78196;1297;3028733;-61
2023/05/08 17:46:32;;;;;;;1.90;1.10;;;;;;;12.90;35.11;100163.97;79314;1298;3015300;-63
2023/05/08 17:48:59;;;;;;;4.70;1.00;;;;;;;12.85;35.26;100170.21;79372;1294;3011572;-64
2023/05/08 17:51:27;;;;;;;3.00;1.10;;;;;;;12.80;35.21;100175.80;78472;1298;3049508;-61
2023/05/08 17:53:55;;;;;;;2.50;1.10;;;;;;;12.76;35.32;100182.75;79470;1295;3019724;-63
2023/05/08 17:56:22;;;;;;;1.90;1.20;;;;;;;12.66;35.32;100190.34;79383;1294;3011656;-61
2023/05/08 17:58:51;;;;;;;1.10;0.90;;;;;;;12.65;35.35;100188.98;78011;1299;3054171;-61
2023/05/08 18:01:18;;;;;;;2.70;1.00;;;;;;;12.66;35.33;100195.45;79449;1295;3013574;-68
2023/05/08 18:03:46;;;;;;;7.20;1.20;;;;;;;12.65;35.12;100197.11;79502;1294;3011809;-63
2023/05/08 18:06:17;;;;;;;2.10;1.00;;;;;;;12.62;35.39;100195.16;78382;1298;3048605;-68
2023/05/08 18:08:44;;;;;;;2.20;1.20;;;;;;;12.56;35.25;100197.94;79389;1296;3011560;-68
2023/05/08 18:11:21;;;;;;;2.60;1.00;;;;;;;12.51;35.25;100201.88;78965;1297;3011888;-63
2023/05/08 18:13:49;;;;;;;1.70;1.20;;;;;;;12.44;35.17;100200.22;78125;1298;3052894;-65
2023/05/08 18:16:17;;;;;;;1.80;0.90;;;;;;;12.41;35.45;100204.38;79403;1298;3014848;-68
2023/05/08 22:47:15;;;;;;;1.60;1.00;;;;;;;10.80;38.92;100141.35;80295;1299;3013792;-65
2023/05/08 22:49:42;;;;;;;3.30;1.20;;;;;;;10.76;38.97;100139.83;78963;1304;3015211;-62
2023/05/08 22:52:09;;;;;;;1.50;1.00;;;;;;;10.69;39.10;100136.98;79208;1302;3011861;-66
2023/05/08 22:54:37;;;;;;;2.30;1.30;;;;;;;10.79;38.42;100134.42;78121;1301;3052333;-64
2023/05/08 22:57:03;;;;;;;3.10;1.10;;;;;;;10.76;38.60;100130.17;79291;1305;3018607;-65
2023/05/08 22:59:30;;;;;;;1.90;1.10;;;;;;;10.72;38.41;100127.91;78172;1304;3011819;-66
2023/05/08 23:01:58;;;;;;;1.70;0.90;;;;;;;10.76;38.43;100129.61;78339;1301;3050531;-64
2023/05/08 23:04:25;;;;;;;3.30;1.20;;;;;;;10.76;38.69;100131.42;81091;1299;3012930;-66
2023/05/08 23:06:51;;;;;;;5.50;1.30;;;;;;;10.72;38.48;100125.79;81673;1295;3011471;-63
2023/05/08 23:09:21;;;;;;;5.60;1.80;;;;;;;10.72;38.66;100124.92;80046;1298;3052120;-68
2023/05/08 23:11:48;;;;;;;2.10;1.10;;;;;;;10.68;38.86;100126.39;79666;1301;3012848;-65
2023/05/08 23:14:15;;;;;;;4.80;1.10;;;;;;;10.72;38.69;100121.77;79191;1296;3011900;-65
2023/05/08 23:16:43;;;;;;;2.40;1.20;;;;;;;10.73;38.70;100122.08;78269;1300;3048377;-62
2023/05/08 23:19:09;;;;;;;3.00;1.10;;;;;;;10.71;38.99;100119.05;79506;1299;3013627;-66
2023/05/08 23:21:36;;;;;;;1.50;1.10;;;;;;;10.73;38.65;100117.85;79318;1300;3012241;-65
2023/05/08 23:24:04;;;;;;;4.70;1.30;;;;;;;10.69;39.08;100114.58;78080;1299;3025965;-65
2023/05/08 23:26:31;;;;;;;2.10;1.40;;;;;;;10.62;39.12;100113.70;79555;1301;3012749;-63
2023/05/08 23:28:57;;;;;;;1.80;1.10;;;;;;;10.58;39.17;100114.58;79278;1296;3013018;-64
2023/05/08 23:31:25;;;;;;;2.30;1.10;;;;;;;10.61;39.11;100114.65;78191;1299;3047134;-62
2023/05/08 23:33:51;;;;;;;2.20;1.10;;;;;;;10.56;39.13;100113.28;79401;1303;3012895;-64
2023/05/08 23:36:18;;;;;;;3.40;1.00;;;;;;;10.49;39.38;100109.27;79312;1302;3013052;-65
2023/05/08 23:38:46;;;;;;;3.20;1.30;;;;;;;10.53;39.23;100108.70;78009;1301;3025801;-65
2023/05/08 23:41:13;;;;;;;3.00;1.10;;;;;;;10.56;39.23;100113.81;79238;1300;3012799;-64
2023/05/08 23:43:39;;;;;;;1.90;1.00;;;;;;;10.55;39.20;100113.16;78972;1301;3011784;-66
2023/05/08 23:46:08;;;;;;;2.60;1.10;;;;;;;10.55;39.19;100113.52;77996;1300;3025907;-63
2023/05/08 23:48:35;;;;;;;1.60;0.80;;;;;;;10.55;39.35;100111.92;79261;1299;3013633;-63
2023/05/08 23:51:01;;;;;;;3.40;1.10;;;;;;;10.57;39.33;100112.39;79306;1299;3011435;-65
2023/05/08 23:53:31;;;;;;;2.80;1.30;;;;;;;10.57;39.38;100113.94;78058;1301;3051928;-63
2023/05/08 23:55:57;;;;;;;1.30;0.90;;;;;;;10.54;39.57;100109.39;79275;1298;3013210;-64
2023/05/08 23:58:25;;;;;;;1.70;0.90;;;;;;;10.55;39.50;100113.72;79257;1297;3011757;-65
